createdAt,value
2019-05-29T00:01:16.665Z,101812.84
2019-05-29T00:03:46.001Z,101814.55
2019-05-29T00:06:18.572Z,101814.91
2019-05-29T00:08:52.010Z,101819.57
2019-05-29T00:11:24.481Z,101820.37
2019-05-29T00:13:58.293Z,101822.90
2019-05-29T00:16:30.527Z,101825.77
2019-05-29T00:19:02.735Z,101832.64
2019-05-29T00:21:34.958Z,101825.17
2019-05-29T00:24:08.259Z,101822.12
2019-05-29T00:26:40.678Z,101823.03
2019-05-29T00:29:14.103Z,101827.34
2019-05-29T00:31:46.378Z,101825.98
2019-05-29T00:34:20.849Z,101832.91
2019-05-29T00:36:53.106Z,101836.81
2019-05-29T00:39:25.380Z,101839.06
2019-05-29T00:41:57.618Z,101842.02
2019-05-29T00:44:34.630Z,101847.72
2019-05-29T00:47:07.141Z,101848.53
2019-05-29T00:49:39.589Z,101847.58
2019-05-29T00:52:14.192Z,101850.01
2019-05-29T00:54:46.509Z,101848.70
2019-05-29T00:57:19.017Z,101857.56
2019-05-29T00:59:53.366Z,101852.79
2019-05-29T01:02:25.621Z,101857.56
2019-05-29T01:04:57.821Z,101854.55
2019-05-29T01:07:30.046Z,101853.19
2019-05-29T01:10:03.428Z,101852.06
2019-05-29T01:12:35.665Z,101861.45
2019-05-29T01:15:07.876Z,101854.70
2019-05-29T01:17:40.128Z,101858.96
2019-05-29T01:20:12.346Z,101861.47
2019-05-29T01:22:44.542Z,101864.92
2019-05-29T01:25:16.761Z,101874.75
2019-05-29T01:27:49.018Z,101875.50
2019-05-29T01:30:21.337Z,101878.45
2019-05-29T01:32:53.708Z,101871.31
2019-05-29T01:35:26.042Z,101867.17
2019-05-29T01:37:58.250Z,101872.72
2019-05-29T01:40:30.499Z,101876.08
2019-05-29T01:43:02.690Z,101878.45
2019-05-29T01:45:34.900Z,101875.55
2019-05-29T01:48:07.160Z,101878.31
2019-05-29T01:50:39.364Z,101879.95
2019-05-29T01:53:11.569Z,101878.07
2019-05-29T01:55:43.769Z,101881.83
2019-05-29T01:58:16.003Z,101889.97
2019-05-29T02:00:48.263Z,101894.69
2019-05-29T02:03:21.851Z,101895.83
2019-05-29T02:05:54.235Z,101899.98
2019-05-29T02:08:26.469Z,101897.63
2019-05-29T02:11:00.960Z,101893.98
2019-05-29T02:13:33.215Z,101897.64
2019-05-29T02:16:05.429Z,101902.28
2019-05-29T02:18:37.742Z,101903.43
2019-05-29T02:21:10.092Z,101905.94
2019-05-29T02:23:42.326Z,101907.08
2019-05-29T02:26:14.539Z,101904.57
2019-05-29T02:28:46.823Z,101913.58
2019-05-29T02:31:21.856Z,101914.23
2019-05-29T02:33:54.174Z,101918.47
2019-05-29T02:36:28.785Z,101913.91
2019-05-29T02:39:00.975Z,101920.75
2019-05-29T02:41:34.894Z,101917.99
2019-05-29T02:44:07.207Z,101916.44
2019-05-29T02:46:39.431Z,101915.94
2019-05-29T02:49:11.637Z,101917.48
2019-05-29T02:51:43.867Z,101916.02
2019-05-29T02:54:16.124Z,101917.22
2019-05-29T02:56:48.390Z,101914.86
2019-05-29T02:59:23.485Z,101919.87
2019-05-29T03:01:56.227Z,101912.75
2019-05-29T03:04:30.063Z,101927.18
2019-05-29T03:07:02.386Z,101927.31
2019-05-29T03:09:34.616Z,101924.66
2019-05-29T03:12:06.800Z,101928.05
2019-05-29T03:14:39.093Z,101931.16
2019-05-29T03:17:11.310Z,101936.84
2019-05-29T03:19:43.548Z,101935.11
2019-05-29T03:22:15.754Z,101949.73
2019-05-29T03:24:47.985Z,101951.38
2019-05-29T03:27:20.235Z,101951.77
2019-05-29T03:29:52.432Z,101948.78
2019-05-29T03:32:27.235Z,101950.94
2019-05-29T03:34:58.571Z,101955.27
2019-05-29T03:37:34.314Z,101953.14
2019-05-29T03:40:06.716Z,101949.23
2019-05-29T03:42:39.311Z,101954.94
2019-05-29T03:45:11.651Z,101964.53
2019-05-29T03:47:43.845Z,101971.48
2019-05-29T03:50:16.289Z,101980.92
2019-05-29T03:52:48.610Z,101981.25
2019-05-29T03:55:20.843Z,101986.52
2019-05-29T03:57:53.033Z,101982.95
2019-05-29T04:00:29.969Z,101977.62
2019-05-29T04:02:59.197Z,101980.48
2019-05-29T04:05:35.250Z,101977.24
2019-05-29T04:08:07.370Z,101988.80
2019-05-29T04:10:39.862Z,101987.36
2019-05-29T04:13:12.185Z,101991.59
2019-05-29T04:15:44.411Z,101995.51
2019-05-29T04:18:19.833Z,101997.03
2019-05-29T04:20:53.243Z,102004.13
2019-05-29T04:23:25.443Z,102003.45
2019-05-29T04:25:57.634Z,102013.81
2019-05-29T04:28:30.332Z,102020.88
2019-05-29T04:31:03.033Z,102022.44
2019-05-29T04:33:36.667Z,102027.86
2019-05-29T04:36:09.116Z,102028.91
2019-05-29T04:38:41.335Z,102032.33
2019-05-29T04:41:13.420Z,102035.20
2019-05-29T04:43:45.664Z,102036.31
2019-05-29T04:46:17.857Z,102046.95
2019-05-29T04:48:52.153Z,102050.60
2019-05-29T04:51:24.454Z,102056.61
2019-05-29T04:53:56.659Z,102055.30
2019-05-29T04:56:28.894Z,102066.91
2019-05-29T04:59:01.144Z,102066.55
2019-05-29T05:01:33.344Z,102069.70
2019-05-29T05:04:05.656Z,102064.12
2019-05-29T05:06:37.907Z,102071.91
2019-05-29T05:09:10.133Z,102067.17
2019-05-29T05:11:42.342Z,102069.75
2019-05-29T05:14:14.556Z,102076.30
2019-05-29T05:16:46.778Z,102073.91
2019-05-29T05:19:19.013Z,102074.20
2019-05-29T05:21:51.242Z,102077.98
2019-05-29T05:24:23.539Z,102079.02
2019-05-29T05:26:55.788Z,102079.30
2019-05-29T05:29:28.008Z,102087.77
2019-05-29T05:32:00.219Z,102080.16
2019-05-29T05:34:32.641Z,102083.12
2019-05-29T05:37:04.870Z,102094.97
2019-05-29T05:39:37.334Z,102092.95
2019-05-29T05:42:09.690Z,102083.63
2019-05-29T05:44:42.363Z,102085.42
2019-05-29T05:47:15.784Z,102090.97
2019-05-29T05:49:47.904Z,102087.19
2019-05-29T05:52:20.204Z,102091.68
2019-05-29T05:54:52.475Z,102097.36
2019-05-29T05:57:24.734Z,102095.23
2019-05-29T05:59:56.975Z,102103.99
2019-05-29T06:02:29.179Z,102094.30
2019-05-29T06:05:01.398Z,102101.42
2019-05-29T06:07:34.111Z,102102.04
2019-05-29T06:10:07.507Z,102111.45
2019-05-29T06:12:40.846Z,102111.13
2019-05-29T06:15:14.251Z,102119.34
2019-05-29T06:18:04.497Z,102122.14
2019-05-29T06:20:20.530Z,102127.54
2019-05-29T06:22:52.757Z,102125.50
2019-05-29T06:25:24.969Z,102130.08
2019-05-29T06:27:57.203Z,102129.64
2019-05-29T06:30:29.507Z,102127.23
2019-05-29T06:33:01.847Z,102129.92
2019-05-29T06:35:34.547Z,102132.30
2019-05-29T06:38:08.172Z,102130.38
2019-05-29T06:40:40.412Z,102128.91
2019-05-29T06:43:12.658Z,102138.09
2019-05-29T06:45:44.931Z,102136.55
2019-05-29T06:48:17.242Z,102136.13
2019-05-29T06:50:49.444Z,102137.27
2019-05-29T06:53:21.673Z,102137.52
2019-05-29T06:55:55.722Z,102133.47
2019-05-29T06:58:27.921Z,102137.52
2019-05-29T07:01:00.148Z,102140.20
2019-05-29T07:03:32.395Z,102146.58
2019-05-29T07:06:04.887Z,102143.78
2019-05-29T07:08:39.987Z,102140.25
2019-05-29T07:11:11.134Z,102141.19
2019-05-29T07:13:47.361Z,102143.74
2019-05-29T07:16:17.421Z,102146.73
2019-05-29T07:19:23.961Z,102143.98
2019-05-29T07:21:23.695Z,102150.81
2019-05-29T07:23:56.166Z,102150.62
2019-05-29T07:26:28.420Z,102155.91
2019-05-29T07:29:07.964Z,102156.69
2019-05-29T07:31:34.567Z,102159.48
2019-05-29T07:34:07.045Z,102162.14
2019-05-29T07:36:41.820Z,102161.42
2019-05-29T07:39:14.259Z,102158.98
2019-05-29T07:41:47.715Z,102165.68
2019-05-29T07:44:19.968Z,102167.16
2019-05-29T07:46:54.326Z,102170.31
2019-05-29T07:49:38.536Z,102169.11
2019-05-29T07:52:00.557Z,102174.20
2019-05-29T07:54:32.768Z,102166.84
2019-05-29T07:57:05.059Z,102165.63
2019-05-29T07:59:38.468Z,102170.11
2019-05-29T08:02:10.866Z,102170.00
2019-05-29T08:04:45.101Z,102166.05
2019-05-29T08:07:17.515Z,102170.95
2019-05-29T08:09:49.905Z,102166.22
2019-05-29T08:12:22.224Z,102162.39
2019-05-29T08:14:54.548Z,102165.56
2019-05-29T08:17:27.176Z,102163.53
2019-05-29T08:20:07.120Z,102160.69
2019-05-29T08:22:34.887Z,102162.11
2019-05-29T08:25:07.524Z,102168.61
2019-05-29T08:27:40.970Z,102161.95
2019-05-29T08:30:14.535Z,102162.50
2019-05-29T08:32:47.049Z,102164.79
2019-05-29T08:35:19.301Z,102161.17
2019-05-29T08:37:51.549Z,102155.47
2019-05-29T08:40:23.791Z,102148.33
2019-05-29T08:42:55.996Z,102146.53
2019-05-29T08:45:28.337Z,102149.28
2019-05-29T08:48:00.622Z,102145.66
2019-05-29T08:50:32.828Z,102145.98
2019-05-29T08:53:05.093Z,102143.36
2019-05-29T08:55:37.342Z,102144.92
2019-05-29T08:58:09.587Z,102138.75
2019-05-29T09:00:46.564Z,102144.19
2019-05-29T09:03:15.755Z,102145.23
2019-05-29T09:06:01.511Z,102145.35
2019-05-29T09:08:21.956Z,102146.30
2019-05-29T09:10:54.592Z,102144.35
2019-05-29T09:13:26.804Z,102145.95
2019-05-29T09:15:59.013Z,102149.78
2019-05-29T09:18:31.262Z,102148.67
2019-05-29T09:21:04.291Z,102148.08
2019-05-29T09:23:36.918Z,102160.13
2019-05-29T09:26:16.008Z,102157.24
2019-05-29T09:28:43.090Z,102153.02
2019-05-29T09:31:16.839Z,102156.33
2019-05-29T09:33:49.291Z,102150.67
2019-05-29T09:36:22.741Z,102150.54
2019-05-29T09:38:55.268Z,102146.80
2019-05-29T09:41:27.495Z,102144.05
2019-05-29T09:44:00.388Z,102145.01
2019-05-29T09:46:33.061Z,102142.78
2019-05-29T09:49:05.251Z,102136.76
2019-05-29T09:51:37.496Z,102141.05
2019-05-29T09:54:09.773Z,102138.95
2019-05-29T09:56:42.041Z,102141.42
2019-05-29T09:59:14.257Z,102144.72
2019-05-29T10:01:46.478Z,102140.25
2019-05-29T10:04:18.680Z,102147.27
2019-05-29T10:06:50.928Z,102143.42
2019-05-29T10:09:23.155Z,102141.21
2019-05-29T10:11:59.464Z,102148.97
2019-05-29T10:14:29.491Z,102151.67
2019-05-29T10:17:10.979Z,102139.45
2019-05-29T10:19:37.811Z,102141.36
2019-05-29T10:22:10.116Z,102145.13
2019-05-29T10:24:42.337Z,102138.73
2019-05-29T10:27:14.562Z,102139.63
2019-05-29T10:29:50.268Z,102141.64
2019-05-29T10:32:20.818Z,102148.44
2019-05-29T10:34:53.111Z,102150.02
2019-05-29T10:37:25.335Z,102137.03
2019-05-29T10:39:57.637Z,102139.06
2019-05-29T10:42:29.846Z,102138.23
2019-05-29T10:45:02.129Z,102144.55
2019-05-29T10:47:34.558Z,102138.89
2019-05-29T10:50:06.976Z,102132.34
2019-05-29T10:52:39.359Z,102134.27
2019-05-29T10:55:11.570Z,102136.20
2019-05-29T10:57:44.769Z,102134.02
2019-05-29T11:00:17.279Z,102128.37
2019-05-29T11:02:50.118Z,102127.60
2019-05-29T11:05:23.545Z,102120.81
2019-05-29T11:07:56.022Z,102121.79
2019-05-29T11:10:28.348Z,102118.37
2019-05-29T11:13:00.573Z,102114.53
2019-05-29T11:15:32.828Z,102125.69
2019-05-29T11:18:05.059Z,102116.50
2019-05-29T11:20:39.303Z,102114.44
2019-05-29T11:23:11.566Z,102111.01
2019-05-29T11:25:43.926Z,102116.36
2019-05-29T11:28:16.177Z,102116.44
2019-05-29T11:30:48.673Z,102122.33
2019-05-29T11:33:21.262Z,102116.00
2019-05-29T11:36:00.805Z,102112.58
2019-05-29T11:38:27.535Z,102119.37
2019-05-29T11:41:24.681Z,102114.83
2019-05-29T11:43:33.940Z,102108.91
2019-05-29T11:46:06.170Z,102108.39
2019-05-29T11:48:38.437Z,102108.84
2019-05-29T11:51:10.684Z,102115.31
2019-05-29T11:53:42.896Z,102109.52
2019-05-29T11:56:16.265Z,102115.04
2019-05-29T11:58:48.404Z,102121.97
2019-05-29T12:01:20.613Z,102128.37
2019-05-29T12:04:14.114Z,102129.97
2019-05-29T12:06:27.371Z,102130.16
2019-05-29T12:09:00.209Z,102130.80
2019-05-29T12:11:33.260Z,102131.74
2019-05-29T12:14:06.017Z,102137.02
2019-05-29T12:16:38.888Z,102133.48
2019-05-29T12:19:11.819Z,102126.98
2019-05-29T12:21:44.832Z,102134.33
2019-05-29T12:24:17.744Z,102136.17
2019-05-29T12:26:50.545Z,102133.80
2019-05-29T12:29:23.372Z,102119.86
2019-05-29T12:31:57.066Z,102122.70
2019-05-29T12:34:30.005Z,102126.66
2019-05-29T12:37:03.860Z,102118.55
2019-05-29T12:39:38.515Z,102112.69
2019-05-29T12:42:11.293Z,102125.34
2019-05-29T12:44:47.378Z,102125.73
2019-05-29T12:47:20.169Z,102126.19
2019-05-29T12:49:53.680Z,102124.08
2019-05-29T12:52:26.694Z,102116.05
2019-05-29T12:55:00.053Z,102116.25
2019-05-29T12:57:32.910Z,102122.06
2019-05-29T13:00:05.830Z,102116.27
2019-05-29T13:02:38.697Z,102113.24
2019-05-29T13:05:19.204Z,102117.03
2019-05-29T13:07:46.034Z,102100.40
2019-05-29T13:10:29.842Z,102102.67
2019-05-29T13:12:58.993Z,102098.01
2019-05-29T13:15:28.119Z,102088.94
2019-05-29T13:18:06.344Z,102101.03
2019-05-29T13:20:35.822Z,102101.31
2019-05-29T13:23:08.671Z,102098.31
2019-05-29T13:25:41.654Z,102081.70
2019-05-29T13:28:14.483Z,102088.89
2019-05-29T13:30:47.291Z,102090.46
2019-05-29T13:33:20.126Z,102079.27
2019-05-29T13:35:52.920Z,102088.38
2019-05-29T13:38:25.743Z,102089.86
2019-05-29T13:40:58.533Z,102085.02
2019-05-29T13:43:31.603Z,102081.59
2019-05-29T13:46:04.703Z,102086.52
2019-05-29T13:48:37.802Z,102082.97
2019-05-29T13:51:10.599Z,102089.65
2019-05-29T13:53:43.484Z,102082.14
2019-05-29T13:56:16.322Z,102081.98
2019-05-29T13:58:49.129Z,102082.50
2019-05-29T14:01:21.962Z,102079.12
2019-05-29T14:03:54.812Z,102079.12
2019-05-29T14:06:27.613Z,102061.01
2019-05-29T14:09:02.931Z,102065.05
2019-05-29T14:11:36.554Z,102060.42
2019-05-29T14:14:11.231Z,102051.30
2019-05-29T14:16:42.717Z,102050.67
2019-05-29T14:19:15.060Z,102039.50
2019-05-29T14:21:47.467Z,102044.77
2019-05-29T14:24:28.656Z,102033.81
2019-05-29T14:26:53.595Z,102031.41
2019-05-29T14:29:25.858Z,102027.00
2019-05-29T14:31:59.181Z,102029.89
2019-05-29T14:34:31.467Z,102018.67
2019-05-29T14:37:04.933Z,102027.27
2019-05-29T14:39:37.688Z,102018.06
2019-05-29T14:42:10.295Z,102013.17
2019-05-29T14:44:42.546Z,102018.17
2019-05-29T14:47:14.868Z,102008.34
2019-05-29T14:49:47.092Z,102014.78
2019-05-29T14:52:19.312Z,102014.65
2019-05-29T14:54:51.609Z,102012.02
2019-05-29T14:57:26.259Z,102012.69
2019-05-29T14:59:58.322Z,102012.89
2019-05-29T15:02:30.583Z,102012.84
2019-05-29T15:05:03.742Z,102007.46
2019-05-29T15:07:36.393Z,102007.64
2019-05-29T15:10:21.991Z,102001.86
2019-05-29T15:12:42.866Z,102007.59
2019-05-29T15:15:16.485Z,101999.63
2019-05-29T15:17:49.040Z,102003.61
2019-05-29T15:20:21.257Z,102003.20
2019-05-29T15:22:53.797Z,101994.33
2019-05-29T15:25:26.067Z,101996.59
2019-05-29T15:27:58.473Z,101995.75
2019-05-29T15:30:30.680Z,101993.13
2019-05-29T15:33:03.080Z,101990.94
2019-05-29T15:35:35.328Z,101987.39
2019-05-29T15:38:08.666Z,101990.06
2019-05-29T15:40:41.103Z,101975.92
2019-05-29T15:43:13.392Z,101986.98
2019-05-29T15:45:45.674Z,101983.44
2019-05-29T15:48:17.895Z,101989.65
2019-05-29T15:50:52.006Z,101981.69
2019-05-29T15:53:24.293Z,101971.52
2019-05-29T15:55:56.572Z,101985.69
2019-05-29T15:58:28.862Z,101985.69
2019-05-29T16:01:01.127Z,101980.33
2019-05-29T16:03:33.719Z,101982.06
2019-05-29T16:06:05.962Z,101979.81
2019-05-29T16:08:38.209Z,101977.61
2019-05-29T16:11:10.644Z,101983.34
2019-05-29T16:13:42.866Z,101983.80
2019-05-29T16:16:15.336Z,101981.96
2019-05-29T16:18:47.896Z,101978.89
2019-05-29T16:21:21.153Z,101979.80
2019-05-29T16:23:53.492Z,101975.40
2019-05-29T16:26:25.906Z,101974.73
2019-05-29T16:28:58.350Z,101971.73
2019-05-29T16:31:30.598Z,101969.54
2019-05-29T16:34:02.976Z,101968.21
2019-05-29T16:36:35.214Z,101961.11
2019-05-29T16:39:07.392Z,101957.27
2019-05-29T16:41:39.862Z,101960.80
2019-05-29T16:44:12.177Z,101964.41
2019-05-29T16:46:45.502Z,101958.20
2019-05-29T16:49:18.709Z,101954.83
2019-05-29T16:51:51.189Z,101959.97
2019-05-29T16:54:23.402Z,101960.10
2019-05-29T16:56:55.788Z,101960.25
2019-05-29T16:59:29.920Z,101958.05
2019-05-29T17:02:02.881Z,101962.19
2019-05-29T17:04:35.698Z,101962.33
2019-05-29T17:07:08.571Z,101967.33
2019-05-29T17:09:41.377Z,101971.59
2019-05-29T17:12:14.321Z,101971.41
2019-05-29T17:14:46.837Z,101958.59
2019-05-29T17:17:19.118Z,101961.30
2019-05-29T17:19:51.397Z,101956.13
2019-05-29T17:22:24.907Z,101963.68
2019-05-29T17:24:57.816Z,101958.22
2019-05-29T17:27:30.736Z,101962.47
2019-05-29T17:30:03.562Z,101958.70
2019-05-29T17:32:36.688Z,101957.00
2019-05-29T17:35:09.891Z,101955.45
2019-05-29T17:37:43.046Z,101959.48
2019-05-29T17:40:16.989Z,101962.09
2019-05-29T17:42:50.228Z,101962.98
2019-05-29T17:45:25.617Z,101944.67
2019-05-29T17:47:57.376Z,101956.90
2019-05-29T17:50:30.477Z,101960.24
2019-05-29T17:53:02.888Z,101959.63
2019-05-29T17:55:35.111Z,101951.36
2019-05-29T17:58:07.404Z,101951.59
2019-05-29T18:00:39.938Z,101939.20
2019-05-29T18:03:12.299Z,101940.53
2019-05-29T18:05:44.875Z,101946.19
2019-05-29T18:08:18.578Z,101950.12
2019-05-29T18:10:52.205Z,101945.64
2019-05-29T18:13:25.327Z,101950.87
2019-05-29T18:15:57.684Z,101954.36
2019-05-29T18:18:29.894Z,101955.19
2019-05-29T18:21:02.239Z,101956.48
2019-05-29T18:23:34.547Z,101948.95
2019-05-29T18:26:06.823Z,101947.56
2019-05-29T18:28:39.033Z,101948.84
2019-05-29T18:31:11.471Z,101947.88
2019-05-29T18:33:43.764Z,101950.03
2019-05-29T18:36:16.026Z,101955.28
2019-05-29T18:38:48.287Z,101953.89
2019-05-29T18:41:20.504Z,101947.23
2019-05-29T18:43:52.732Z,101949.83
2019-05-29T18:46:25.229Z,101941.40
2019-05-29T18:48:57.456Z,101939.09
2019-05-29T18:51:29.688Z,101935.97
2019-05-29T18:54:01.965Z,101928.03
2019-05-29T18:56:34.263Z,101934.63
2019-05-29T18:59:06.977Z,101930.27
2019-05-29T19:01:39.318Z,101938.67
2019-05-29T19:04:11.711Z,101936.45
2019-05-29T19:06:44.103Z,101942.15
2019-05-29T19:09:16.329Z,101956.22
2019-05-29T19:11:48.596Z,101956.86
2019-05-29T19:14:21.752Z,101964.53
2019-05-29T19:16:55.228Z,101968.37
2019-05-29T19:19:28.363Z,101966.78
2019-05-29T19:22:00.819Z,101965.50
2019-05-29T19:24:33.204Z,101969.54
2019-05-29T19:27:05.406Z,101972.32
2019-05-29T19:29:37.657Z,101969.13
2019-05-29T19:32:10.779Z,101973.00
2019-05-29T19:34:43.055Z,101978.69
2019-05-29T19:37:15.411Z,101973.38
2019-05-29T19:39:47.584Z,101980.48
2019-05-29T19:42:19.855Z,101981.33
2019-05-29T19:44:52.127Z,101992.27
2019-05-29T19:47:26.540Z,101991.75
2019-05-29T19:49:58.890Z,101986.48
2019-05-29T19:52:31.265Z,101990.63
2019-05-29T19:55:03.664Z,102004.48
2019-05-29T19:57:54.161Z,102008.77
2019-05-29T20:00:09.963Z,102005.51
2019-05-29T20:02:42.499Z,102013.37
2019-05-29T20:05:14.725Z,102017.32
2019-05-29T20:07:46.971Z,102017.73
2019-05-29T20:10:20.272Z,102018.06
2019-05-29T20:12:52.511Z,102021.33
2019-05-29T20:15:24.759Z,102026.07
2019-05-29T20:17:57.088Z,102023.91
2019-05-29T20:20:30.359Z,102032.77
2019-05-29T20:23:02.754Z,102034.15
2019-05-29T20:25:35.047Z,102036.84
2019-05-29T20:28:07.286Z,102028.20
2019-05-29T20:30:39.624Z,102028.29
2019-05-29T20:33:12.069Z,102032.72
2019-05-29T20:35:44.329Z,102034.88
2019-05-29T20:38:16.553Z,102036.19
2019-05-29T20:40:48.930Z,102035.78
2019-05-29T20:43:21.252Z,102026.08
2019-05-29T20:45:54.498Z,102029.55
2019-05-29T20:48:26.947Z,102029.92
2019-05-29T20:50:59.200Z,102031.72
2019-05-29T20:53:33.402Z,102030.02
2019-05-29T20:56:05.800Z,102020.80
2019-05-29T20:58:38.040Z,102026.08
2019-05-29T21:01:10.264Z,102021.69
2019-05-29T21:03:42.661Z,102024.23
2019-05-29T21:06:15.144Z,102028.19
2019-05-29T21:08:47.367Z,102018.91
2019-05-29T21:11:19.595Z,102026.30
2019-05-29T21:13:52.242Z,102022.23
2019-05-29T21:16:24.473Z,102027.03
2019-05-29T21:18:56.704Z,102023.96
2019-05-29T21:21:28.956Z,102023.86
2019-05-29T21:24:01.234Z,102024.27
2019-05-29T21:26:34.944Z,102025.44
2019-05-29T21:29:07.987Z,102021.84
2019-05-29T21:31:41.631Z,102023.22
2019-05-29T21:34:14.144Z,102024.95
2019-05-29T21:36:46.810Z,102019.64
2019-05-29T21:39:19.041Z,102021.41
2019-05-29T21:41:52.383Z,102016.52
2019-05-29T21:44:24.802Z,102012.98
2019-05-29T21:46:57.020Z,102004.13
2019-05-29T21:49:31.550Z,102001.02
2019-05-29T21:52:03.312Z,102003.61
2019-05-29T21:54:35.610Z,102000.01
2019-05-29T21:57:07.796Z,102000.31
2019-05-29T21:59:48.120Z,101996.67
2019-05-29T22:02:21.363Z,101992.17
2019-05-29T22:04:53.866Z,101994.13
2019-05-29T22:07:26.105Z,101989.23
2019-05-29T22:09:58.721Z,101995.81
2019-05-29T22:12:31.073Z,101996.70
2019-05-29T22:15:04.074Z,101998.02
2019-05-29T22:17:38.856Z,101989.23
2019-05-29T22:20:11.073Z,101990.95
2019-05-29T22:22:43.315Z,101992.20
2019-05-29T22:25:15.559Z,101988.25
2019-05-29T22:27:47.784Z,101988.25
2019-05-29T22:30:20.025Z,101986.06
2019-05-29T22:32:53.283Z,101987.00
2019-05-29T22:35:25.603Z,101977.31
2019-05-29T22:37:57.854Z,101982.09
2019-05-29T22:40:30.077Z,101976.78
2019-05-29T22:43:02.418Z,101980.30
2019-05-29T22:45:34.866Z,101974.92
2019-05-29T22:48:07.142Z,101975.81
2019-05-29T22:50:39.392Z,101977.55
2019-05-29T22:53:11.712Z,101972.23
2019-05-29T22:55:43.947Z,101973.95
2019-05-29T22:58:16.170Z,101966.02
2019-05-29T23:00:48.398Z,101968.64
2019-05-29T23:03:21.056Z,101962.48
2019-05-29T23:05:54.273Z,101966.84
2019-05-29T23:08:26.536Z,101961.16
2019-05-29T23:10:58.768Z,101958.94
2019-05-29T23:13:30.997Z,101955.41
2019-05-29T23:16:03.950Z,101959.79
2019-05-29T23:18:37.261Z,101950.14
2019-05-29T23:21:09.501Z,101948.36
2019-05-29T23:23:41.717Z,101946.98
2019-05-29T23:26:13.973Z,101943.45
2019-05-29T23:28:46.418Z,101940.39
2019-05-29T23:31:18.965Z,101946.50
2019-05-29T23:33:51.195Z,101933.29
2019-05-29T23:36:23.406Z,101935.13
2019-05-29T23:38:55.660Z,101935.56
2019-05-29T23:41:27.868Z,101929.44
2019-05-29T23:44:00.115Z,101931.18
2019-05-29T23:46:32.366Z,101930.70
2019-05-29T23:49:04.591Z,101925.31
2019-05-29T23:51:36.851Z,101926.47
2019-05-29T23:54:09.104Z,101922.88
2019-05-29T23:56:41.332Z,101922.45
2019-05-29T23:59:13.542Z,101923.40
